KFRI/FRI METAR and TAF weather

Enter ICAO airport designator
Station Type Date Time Source
KFRI METAR 2019/02/20 22:56 UTC NOAA

KFRI 202256Z AUTO 23014KT 10SM CLR 02/M05 A2985 RMK AO2 SLP117 T00221050


Station Type Date Time Source
KFRI Decoded METAR 2019/02/20 22:56 UTC NOAA

Fort Riley, Marshall AAF Ft Riley, KS, United States (KFRI) 39-03-20N 096-45-51W
Feb 20, 2019 - 05:56 PM EST / 2019.02.20 2256 UTC
Wind: from the SW (230 degrees) at 16 MPH (14 KT):0
Visibility: 10 mile(s):0
Sky conditions: clear
Temperature: 36.0 F (2.2 C)
Dew Point: 23.0 F (-5.0 C)
Relative Humidity: 58%
Pressure (altimeter): 29.85 in. Hg (1010 hPa)
ob: KFRI 202256Z AUTO 23014KT 10SM CLR 02/M05 A2985 RMK AO2 SLP117 T00221050
cycle: 23

Station Type Date Time Source
KFRI TAF 2019/02/20 16:14 UTC NOAA

TAF KFRI 201600Z 2016/2122 24012G20KT 9999 SCT010 BKN050 620503 QNH2974INS
BECMG 2018/2019 22012G20KT 9999 FEW250 QNH2980INS
BECMG 2023/2024 21006KT 9999 SKC QNH2986INS
BECMG 2111/2112 14006KT 9999 SCT150 QNH2990INS TX02/2021Z TNM07/2111Z


Example: see airport list